Time;durP1;ratioP1;P1;durP2;ratioP2;P2;SDS_P1;SDS_P2;PMS_P1;PMS_P2;Temp;Humidity;BMP_temperature;BMP_pressure;BME280_temperature;BME280_humidity;BME280_pressure;Samples;Min_cycle;Max_cycle;Signal;HPM_P1;HPM_P2
2023/11/25 00:02:20;;;;;;;12.23;2.83;;;;;;;;;;5016680;28;20201;-65
2023/11/25 00:04:45;;;;;;;10.07;1.87;;;;;;;;;;5030535;28;20187;-65
2023/11/25 00:07:10;;;;;;;9.60;1.37;;;;;;;;;;5029628;28;20753;-66
2023/11/25 00:09:35;;;;;;;4.23;1.63;;;;;;;;;;5032168;28;20190;-66
2023/11/25 00:12:01;;;;;;;5.83;0.80;;;;;;;;;;5027596;28;20228;-66
2023/11/25 00:14:26;;;;;;;6.87;1.07;;;;;;;;;;5026951;28;20194;-66
2023/11/25 00:16:51;;;;;;;7.07;1.57;;;;;;;;;;5031389;28;20653;-66
2023/11/25 00:19:16;;;;;;;3.77;1.23;;;;;;;;;;5026888;28;20273;-66
2023/11/25 00:21:42;;;;;;;6.27;1.97;;;;;;;;;;5021520;28;20306;-65
2023/11/25 00:24:07;;;;;;;8.10;1.93;;;;;;;;;;5031315;28;20182;-66
2023/11/25 00:26:32;;;;;;;10.40;2.40;;;;;;;;;;5027872;28;20281;-65
2023/11/25 00:28:58;;;;;;;7.73;1.43;;;;;;;;;;5031743;28;20189;-66
2023/11/25 00:31:24;;;;;;;7.97;1.87;;;;;;;;;;5021503;28;20340;-67
2023/11/25 00:33:49;;;;;;;3.20;1.67;;;;;;;;;;5024329;28;20182;-67
2023/11/25 00:36:15;;;;;;;12.37;2.27;;;;;;;;;;5010860;28;20179;-67
2023/11/25 00:38:40;;;;;;;8.00;1.83;;;;;;;;;;5022836;28;20528;-66
2023/11/25 00:41:05;;;;;;;12.47;1.57;;;;;;;;;;5028013;28;20669;-67
2023/11/25 00:43:31;;;;;;;7.37;1.70;;;;;;;;;;5025706;28;20175;-67
2023/11/25 00:45:57;;;;;;;4.93;1.27;;;;;;;;;;5029889;28;20188;-66
2023/11/25 00:48:22;;;;;;;10.57;1.63;;;;;;;;;;5027870;28;20649;-66
2023/11/25 00:50:49;;;;;;;11.10;1.83;;;;;;;;;;5023751;28;20206;-66
2023/11/25 00:53:14;;;;;;;5.73;1.93;;;;;;;;;;5022107;28;20711;-67
2023/11/25 00:55:39;;;;;;;7.73;1.57;;;;;;;;;;5024210;28;20179;-67
2023/11/25 00:58:05;;;;;;;8.30;1.43;;;;;;;;;;5022220;28;20194;-66
2023/11/25 01:00:31;;;;;;;15.70;1.67;;;;;;;;;;5017997;28;20190;-67
2023/11/25 01:02:56;;;;;;;7.67;1.73;;;;;;;;;;5021227;28;20434;-66
2023/11/25 01:05:21;;;;;;;5.67;1.30;;;;;;;;;;5023709;28;20163;-67
2023/11/25 01:07:47;;;;;;;6.90;1.67;;;;;;;;;;5021880;28;20583;-66
2023/11/25 01:10:12;;;;;;;11.33;2.23;;;;;;;;;;5021703;28;20197;-66
2023/11/25 01:12:37;;;;;;;8.40;1.67;;;;;;;;;;5024633;28;20540;-66
2023/11/25 01:15:03;;;;;;;8.83;1.33;;;;;;;;;;5022336;28;20174;-66
2023/11/25 01:17:29;;;;;;;10.23;1.37;;;;;;;;;;5019389;28;20179;-66
2023/11/25 01:19:55;;;;;;;5.20;1.40;;;;;;;;;;5022225;28;20684;-66
2023/11/25 01:22:20;;;;;;;4.10;1.13;;;;;;;;;;5028244;28;20266;-67
2023/11/25 01:24:47;;;;;;;8.17;1.57;;;;;;;;;;5027059;28;20185;-65
2023/11/25 01:27:14;;;;;;;6.17;1.60;;;;;;;;;;5026330;28;20198;-67
2023/11/25 01:29:39;;;;;;;6.43;1.63;;;;;;;;;;5021532;28;20202;-65
2023/11/25 01:32:05;;;;;;;10.40;1.47;;;;;;;;;;5027451;28;20224;-67
2023/11/25 01:34:31;;;;;;;8.63;1.57;;;;;;;;;;5030415;28;20178;-66
2023/11/25 01:36:56;;;;;;;5.13;1.60;;;;;;;;;;5025559;28;20174;-67
2023/11/25 01:39:21;;;;;;;7.90;1.30;;;;;;;;;;5023907;28;20289;-65
2023/11/25 01:41:48;;;;;;;9.60;1.87;;;;;;;;;;5019648;28;20368;-66
2023/11/25 01:44:13;;;;;;;6.77;1.67;;;;;;;;;;5025725;28;20701;-67
2023/11/25 01:46:39;;;;;;;6.50;1.13;;;;;;;;;;5025149;28;20793;-67
2023/11/25 01:49:08;;;;;;;12.70;1.73;;;;;;;;;;5027518;28;20186;-67
2023/11/25 01:51:34;;;;;;;2.43;1.07;;;;;;;;;;5031380;28;20190;-68
2023/11/25 01:54:00;;;;;;;11.97;2.20;;;;;;;;;;5026049;28;20209;-67
2023/11/25 01:56:26;;;;;;;7.07;1.77;;;;;;;;;;5029660;28;20651;-67
2023/11/25 01:58:51;;;;;;;9.60;2.03;;;;;;;;;;5027369;28;20194;-68
2023/11/25 02:01:18;;;;;;;14.23;1.87;;;;;;;;;;5028503;28;20206;-66
2023/11/25 02:03:43;;;;;;;9.70;2.30;;;;;;;;;;5015597;28;20187;-67
2023/11/25 02:06:08;;;;;;;6.83;1.77;;;;;;;;;;5019985;28;20198;-67
2023/11/25 02:08:33;;;;;;;6.33;2.00;;;;;;;;;;5019291;28;20266;-67
2023/11/25 02:11:00;;;;;;;10.10;2.60;;;;;;;;;;5021209;28;20200;-67
2023/11/25 02:13:26;;;;;;;6.60;1.27;;;;;;;;;;5017133;28;20185;-67
2023/11/25 02:15:51;;;;;;;8.27;2.00;;;;;;;;;;5019553;28;20175;-67
2023/11/25 02:18:17;;;;;;;14.77;2.30;;;;;;;;;;5022516;28;20627;-67
2023/11/25 02:20:42;;;;;;;11.27;1.73;;;;;;;;;;5024884;28;20191;-67
2023/11/25 02:23:16;;;;;;;9.80;2.00;;;;;;;;;;5021454;28;20182;-67
2023/11/25 02:25:47;;;;;;;6.87;1.90;;;;;;;;;;5023151;28;20173;-66
2023/11/25 02:28:13;;;;;;;11.70;2.23;;;;;;;;;;5018790;28;20688;-67
2023/11/25 02:30:38;;;;;;;9.60;1.93;;;;;;;;;;5024250;28;20193;-67
2023/11/25 02:33:04;;;;;;;9.80;1.90;;;;;;;;;;5021782;28;20277;-67
2023/11/25 02:35:31;;;;;;;14.47;1.83;;;;;;;;;;5022502;28;20210;-68
2023/11/25 02:37:57;;;;;;;8.17;1.83;;;;;;;;;;5027858;28;20205;-67
2023/11/25 02:40:23;;;;;;;5.23;2.23;;;;;;;;;;5021167;28;20282;-68
2023/11/25 02:42:50;;;;;;;17.00;2.87;;;;;;;;;;5029268;28;20599;-65
2023/11/25 02:45:18;;;;;;;19.93;2.50;;;;;;;;;;4998699;28;20187;-66
2023/11/25 02:47:43;;;;;;;14.83;1.80;;;;;;;;;;5021824;28;20214;-68
2023/11/25 02:50:10;;;;;;;8.37;2.07;;;;;;;;;;5033020;22;20230;-67
2023/11/25 02:52:36;;;;;;;10.53;2.67;;;;;;;;;;5017021;28;20670;-66
2023/11/25 02:55:01;;;;;;;10.53;2.53;;;;;;;;;;5026533;28;20175;-67
2023/11/25 02:57:27;;;;;;;10.10;2.77;;;;;;;;;;5027031;28;20310;-67
2023/11/25 02:59:54;;;;;;;12.40;2.30;;;;;;;;;;5024287;28;20210;-67
2023/11/25 03:02:20;;;;;;;5.83;2.03;;;;;;;;;;4989349;28;20262;-66
2023/11/25 03:04:45;;;;;;;8.23;2.13;;;;;;;;;;5000808;28;20186;-66
2023/11/25 03:07:12;;;;;;;14.83;2.73;;;;;;;;;;5003859;28;20207;-66
2023/11/25 03:09:38;;;;;;;7.80;2.30;;;;;;;;;;5008851;28;20286;-67
2023/11/25 03:12:05;;;;;;;13.63;2.10;;;;;;;;;;4992260;28;20193;-67
2023/11/25 03:14:31;;;;;;;10.73;2.07;;;;;;;;;;5010265;28;20197;-67
2023/11/25 03:16:56;;;;;;;11.03;2.33;;;;;;;;;;5010222;28;20603;-66
2023/11/25 03:19:23;;;;;;;7.03;1.43;;;;;;;;;;5009281;28;20183;-67
2023/11/25 03:21:50;;;;;;;12.03;2.70;;;;;;;;;;5008018;28;20222;-67
2023/11/25 03:24:16;;;;;;;6.20;1.63;;;;;;;;;;5003704;28;20190;-67
2023/11/25 03:26:43;;;;;;;7.23;1.43;;;;;;;;;;5007252;28;20709;-67
2023/11/25 03:29:09;;;;;;;9.67;2.30;;;;;;;;;;5004273;28;20179;-67
2023/11/25 03:31:40;;;;;;;8.50;1.40;;;;;;;;;;5003154;28;20249;-67
2023/11/25 03:34:05;;;;;;;12.73;1.47;;;;;;;;;;5010502;28;20197;-67
2023/11/25 03:36:30;;;;;;;5.33;1.40;;;;;;;;;;5007710;28;20188;-67
2023/11/25 03:38:56;;;;;;;9.43;2.10;;;;;;;;;;5001804;28;20175;-67
2023/11/25 03:41:23;;;;;;;10.67;1.70;;;;;;;;;;4986243;28;20203;-67
2023/11/25 03:43:48;;;;;;;8.47;1.87;;;;;;;;;;5006023;28;20174;-67
2023/11/25 03:46:13;;;;;;;4.00;1.30;;;;;;;;;;4984552;28;20265;-67
2023/11/25 03:48:38;;;;;;;7.90;2.43;;;;;;;;;;5001891;28;20599;-67
2023/11/25 03:51:05;;;;;;;7.20;1.87;;;;;;;;;;5008508;28;20207;-67
2023/11/25 03:53:30;;;;;;;11.37;1.30;;;;;;;;;;5007691;28;20175;-66
2023/11/25 03:55:56;;;;;;;7.37;1.47;;;;;;;;;;5009058;28;20171;-68
2023/11/25 03:58:21;;;;;;;7.33;1.50;;;;;;;;;;4988956;28;20198;-68
2023/11/25 04:00:46;;;;;;;5.27;1.17;;;;;;;;;;4991681;28;20245;-69
2023/11/25 04:03:11;;;;;;;7.43;2.10;;;;;;;;;;5002715;28;20703;-68
2023/11/25 04:05:37;;;;;;;7.07;1.40;;;;;;;;;;5003159;28;20190;-68
2023/11/25 04:08:02;;;;;;;7.90;1.20;;;;;;;;;;4993379;28;20218;-68
2023/11/25 04:10:27;;;;;;;8.53;1.33;;;;;;;;;;5005374;28;20245;-68
2023/11/25 04:12:52;;;;;;;6.43;1.30;;;;;;;;;;5008509;28;20187;-68
2023/11/25 04:15:21;;;;;;;6.33;1.30;;;;;;;;;;5006250;28;20206;-68
2023/11/25 04:17:46;;;;;;;13.40;1.87;;;;;;;;;;4991288;28;20270;-68
2023/11/25 04:20:17;;;;;;;6.87;1.50;;;;;;;;;;4989387;28;20293;-68
2023/11/25 04:22:43;;;;;;;9.47;1.47;;;;;;;;;;4985805;28;20217;-68
2023/11/25 04:25:09;;;;;;;7.20;2.03;;;;;;;;;;4986228;28;20274;-68
2023/11/25 04:27:34;;;;;;;13.23;1.50;;;;;;;;;;5007214;28;20624;-68
2023/11/25 04:29:59;;;;;;;8.37;1.90;;;;;;;;;;5009605;28;20210;-68
2023/11/25 04:32:25;;;;;;;10.47;1.83;;;;;;;;;;5009224;28;20266;-68
2023/11/25 04:34:50;;;;;;;7.63;1.43;;;;;;;;;;5010556;28;20175;-68
2023/11/25 04:37:16;;;;;;;10.53;1.73;;;;;;;;;;5009640;28;20175;-67
2023/11/25 04:39:41;;;;;;;13.40;3.33;;;;;;;;;;5008829;28;20218;-67
2023/11/25 04:42:07;;;;;;;8.47;1.20;;;;;;;;;;5010390;28;20258;-68
2023/11/25 04:44:32;;;;;;;5.97;1.43;;;;;;;;;;4998685;28;20191;-67
2023/11/25 04:46:57;;;;;;;9.10;2.00;;;;;;;;;;5005796;28;20238;-68
2023/11/25 04:49:22;;;;;;;4.50;1.53;;;;;;;;;;5009962;28;20190;-68
2023/11/25 04:51:49;;;;;;;3.03;1.00;;;;;;;;;;4995757;28;20303;-68
2023/11/25 04:54:15;;;;;;;6.43;1.00;;;;;;;;;;5014227;28;20179;-68
2023/11/25 04:56:40;;;;;;;5.17;0.87;;;;;;;;;;5012274;28;20175;-68
2023/11/25 04:59:06;;;;;;;5.07;0.60;;;;;;;;;;5011019;28;20261;-69
2023/11/25 05:01:31;;;;;;;2.37;0.90;;;;;;;;;;5012352;28;20194;-68
2023/11/25 05:03:57;;;;;;;3.43;0.80;;;;;;;;;;5011723;28;20182;-69
2023/11/25 05:06:22;;;;;;;2.30;1.30;;;;;;;;;;5003640;28;20207;-69
2023/11/25 05:08:47;;;;;;;3.90;0.67;;;;;;;;;;4989119;28;20171;-69
2023/11/25 05:11:12;;;;;;;11.50;1.20;;;;;;;;;;5008291;28;20222;-68
2023/11/25 05:13:37;;;;;;;3.33;0.73;;;;;;;;;;5012175;28;20178;-69
2023/11/25 05:16:03;;;;;;;2.87;0.70;;;;;;;;;;5013703;28;20658;-69
2023/11/25 05:18:29;;;;;;;2.73;0.90;;;;;;;;;;4993267;28;20193;-69
2023/11/25 05:20:54;;;;;;;2.27;0.93;;;;;;;;;;5010808;28;20207;-69
2023/11/25 05:23:19;;;;;;;10.60;1.43;;;;;;;;;;5006982;28;20179;-69
2023/11/25 05:25:44;;;;;;;2.27;0.57;;;;;;;;;;5007929;28;20568;-70
2023/11/25 05:28:09;;;;;;;2.83;1.03;;;;;;;;;;5009660;28;20209;-69
2023/11/25 05:30:34;;;;;;;7.33;0.90;;;;;;;;;;5009091;28;20210;-69
2023/11/25 05:33:00;;;;;;;3.37;1.00;;;;;;;;;;5010684;28;20179;-68
2023/11/25 05:35:25;;;;;;;4.20;1.27;;;;;;;;;;5011435;28;20211;-68
2023/11/25 05:37:50;;;;;;;2.77;0.80;;;;;;;;;;4995080;28;20722;-69
2023/11/25 05:40:16;;;;;;;3.20;0.87;;;;;;;;;;5011324;28;20198;-68
2023/11/25 05:42:47;;;;;;;4.57;0.60;;;;;;;;;;5005820;28;20648;-69
2023/11/25 05:45:12;;;;;;;3.70;0.80;;;;;;;;;;5005749;28;20197;-68
2023/11/25 05:47:37;;;;;;;5.00;0.77;;;;;;;;;;5006917;28;20206;-69
2023/11/25 05:50:03;;;;;;;7.17;0.90;;;;;;;;;;5005502;28;20215;-67
2023/11/25 05:52:29;;;;;;;5.47;0.83;;;;;;;;;;5007460;28;20175;-67
2023/11/25 05:54:55;;;;;;;8.03;1.20;;;;;;;;;;5010680;28;20171;-67
2023/11/25 05:57:20;;;;;;;4.43;0.73;;;;;;;;;;5010157;28;20186;-66
2023/11/25 05:59:46;;;;;;;7.57;1.30;;;;;;;;;;5008409;28;20203;-67
2023/11/25 06:02:11;;;;;;;3.13;1.07;;;;;;;;;;5000246;28;20200;-68
2023/11/25 06:04:36;;;;;;;7.33;1.17;;;;;;;;;;5009723;28;20179;-68
2023/11/25 06:07:02;;;;;;;7.83;1.30;;;;;;;;;;4986175;28;20208;-68
2023/11/25 06:09:27;;;;;;;5.53;2.30;;;;;;;;;;5005591;28;20183;-67
2023/11/25 06:11:53;;;;;;;11.10;1.10;;;;;;;;;;4995840;28;20178;-68
2023/11/25 06:14:19;;;;;;;6.77;1.17;;;;;;;;;;5008027;28;20220;-67
2023/11/25 06:16:45;;;;;;;4.20;1.10;;;;;;;;;;5009429;28;20285;-68
2023/11/25 06:19:11;;;;;;;8.20;1.53;;;;;;;;;;5012119;28;20218;-68
2023/11/25 06:21:36;;;;;;;11.27;1.40;;;;;;;;;;5008105;28;20199;-68
2023/11/25 06:24:04;;;;;;;2.63;1.00;;;;;;;;;;5007439;28;20415;-68
2023/11/25 06:26:29;;;;;;;8.70;1.17;;;;;;;;;;4989728;28;20222;-68
2023/11/25 06:28:55;;;;;;;7.10;1.27;;;;;;;;;;5009765;28;20183;-68
2023/11/25 06:31:21;;;;;;;8.77;1.37;;;;;;;;;;5009565;28;20199;-68
2023/11/25 06:33:46;;;;;;;4.53;0.70;;;;;;;;;;5009770;28;20635;-67
2023/11/25 06:36:12;;;;;;;7.70;1.63;;;;;;;;;;5011150;28;20179;-67
2023/11/25 06:38:37;;;;;;;9.30;1.53;;;;;;;;;;4992826;28;20540;-67
2023/11/25 06:41:02;;;;;;;5.13;1.17;;;;;;;;;;4991445;28;20225;-67
2023/11/25 06:43:29;;;;;;;6.37;1.17;;;;;;;;;;5004303;28;20183;-68
2023/11/25 06:45:54;;;;;;;3.83;1.23;;;;;;;;;;5003915;28;20167;-68
2023/11/25 06:48:25;;;;;;;5.90;0.83;;;;;;;;;;5003307;28;20175;-68
2023/11/25 06:50:51;;;;;;;8.97;1.73;;;;;;;;;;5003757;28;20210;-68
2023/11/25 06:53:17;;;;;;;4.53;1.07;;;;;;;;;;4992258;28;20175;-68
2023/11/25 06:55:42;;;;;;;4.63;0.80;;;;;;;;;;4993104;28;20186;-67
2023/11/25 06:58:08;;;;;;;5.73;1.10;;;;;;;;;;5008828;28;20185;-68
2023/11/25 07:00:33;;;;;;;7.10;0.83;;;;;;;;;;5004513;28;20234;-68
2023/11/25 07:02:58;;;;;;;4.40;1.40;;;;;;;;;;4988670;28;20211;-68
2023/11/25 07:05:24;;;;;;;6.10;0.90;;;;;;;;;;4993036;28;20183;-68
2023/11/25 07:07:49;;;;;;;4.17;1.00;;;;;;;;;;5010817;28;20210;-68
2023/11/25 07:10:14;;;;;;;6.83;1.17;;;;;;;;;;5011570;28;20211;-68
2023/11/25 07:12:40;;;;;;;10.33;1.27;;;;;;;;;;5005002;28;20635;-68
2023/11/25 07:15:06;;;;;;;6.53;1.30;;;;;;;;;;5012218;28;20179;-68
2023/11/25 07:17:31;;;;;;;7.10;1.20;;;;;;;;;;5004427;28;20183;-68
2023/11/25 07:19:56;;;;;;;3.43;1.20;;;;;;;;;;5000990;28;20203;-67
2023/11/25 07:22:21;;;;;;;5.50;1.17;;;;;;;;;;5003255;28;20650;-68
2023/11/25 07:24:46;;;;;;;5.20;1.60;;;;;;;;;;5007386;28;20183;-67
2023/11/25 07:27:18;;;;;;;12.83;1.23;;;;;;;;;;5005915;28;20627;-68
2023/11/25 07:29:44;;;;;;;5.60;1.53;;;;;;;;;;5009181;28;20207;-68
2023/11/25 07:32:09;;;;;;;3.80;0.90;;;;;;;;;;5006861;28;20186;-68
2023/11/25 07:34:35;;;;;;;2.63;1.30;;;;;;;;;;4991215;28;20179;-67
2023/11/25 07:37:01;;;;;;;6.87;1.20;;;;;;;;;;4987659;28;20183;-68
2023/11/25 07:39:29;;;;;;;8.90;1.40;;;;;;;;;;5006919;28;20668;-67
2023/11/25 07:41:54;;;;;;;9.43;1.73;;;;;;;;;;5007395;28;20249;-68
2023/11/25 07:44:21;;;;;;;8.50;1.97;;;;;;;;;;5006947;28;20646;-69
2023/11/25 07:46:47;;;;;;;7.30;1.70;;;;;;;;;;4996541;28;20737;-68
2023/11/25 07:49:12;;;;;;;3.30;1.80;;;;;;;;;;5007459;28;20261;-68
2023/11/25 07:51:37;;;;;;;7.97;1.27;;;;;;;;;;5000766;28;20206;-68
2023/11/25 07:54:03;;;;;;;15.07;1.70;;;;;;;;;;5008975;28;20211;-68
2023/11/25 07:56:28;;;;;;;4.80;1.23;;;;;;;;;;4990733;28;20535;-68
2023/11/25 07:58:53;;;;;;;6.87;1.30;;;;;;;;;;5005419;28;20186;-67
2023/11/25 08:01:18;;;;;;;6.10;1.73;;;;;;;;;;5006814;28;20226;-67
2023/11/25 08:03:44;;;;;;;7.00;1.70;;;;;;;;;;5006597;28;20306;-68
2023/11/25 08:06:10;;;;;;;5.53;1.43;;;;;;;;;;5001822;28;20187;-68
2023/11/25 08:08:35;;;;;;;6.83;1.17;;;;;;;;;;5007434;28;20211;-68
2023/11/25 08:11:00;;;;;;;9.27;1.00;;;;;;;;;;5011112;28;20654;-67
2023/11/25 08:13:26;;;;;;;3.97;1.00;;;;;;;;;;5003930;28;20175;-67
2023/11/25 08:15:51;;;;;;;8.13;2.00;;;;;;;;;;5008316;28;20237;-67
2023/11/25 08:18:18;;;;;;;10.00;1.20;;;;;;;;;;5002068;28;20273;-67
2023/11/25 08:20:43;;;;;;;4.00;1.23;;;;;;;;;;4991788;28;20203;-67
2023/11/25 08:23:09;;;;;;;7.03;2.23;;;;;;;;;;5012569;28;20179;-67
2023/11/25 08:25:34;;;;;;;6.93;0.73;;;;;;;;;;5012058;28;20195;-67
2023/11/25 08:28:00;;;;;;;5.93;1.00;;;;;;;;;;5011439;28;20203;-68
2023/11/25 08:30:25;;;;;;;12.67;1.03;;;;;;;;;;5013005;28;20819;-67
2023/11/25 08:32:50;;;;;;;4.50;1.13;;;;;;;;;;5009842;28;20175;-67
2023/11/25 08:35:15;;;;;;;1.80;0.67;;;;;;;;;;5006616;28;20194;-67
2023/11/25 08:37:41;;;;;;;4.83;0.97;;;;;;;;;;5008857;28;20662;-67
2023/11/25 08:40:07;;;;;;;5.83;0.93;;;;;;;;;;5013023;28;20569;-67
2023/11/25 08:42:32;;;;;;;6.80;0.90;;;;;;;;;;5012227;28;20562;-68
2023/11/25 08:45:01;;;;;;;4.80;1.40;;;;;;;;;;5012241;28;20175;-67
2023/11/25 08:47:26;;;;;;;5.90;0.60;;;;;;;;;;5006921;28;20217;-68
2023/11/25 08:49:51;;;;;;;7.03;0.97;;;;;;;;;;5035128;22;20203;-66
2023/11/25 08:52:16;;;;;;;9.30;1.03;;;;;;;;;;5043163;28;20238;-66
2023/11/25 08:54:42;;;;;;;9.07;1.37;;;;;;;;;;5045289;28;20177;-66
2023/11/25 08:57:08;;;;;;;2.10;0.77;;;;;;;;;;5021326;28;20179;-65
2023/11/25 08:59:33;;;;;;;6.37;1.53;;;;;;;;;;5037693;28;20178;-66
2023/11/25 09:01:58;;;;;;;5.37;1.53;;;;;;;;;;5019379;28;20732;-67
2023/11/25 09:04:25;;;;;;;8.90;1.10;;;;;;;;;;5033174;28;20653;-67
2023/11/25 09:06:51;;;;;;;6.20;1.30;;;;;;;;;;5038759;28;20567;-66
2023/11/25 09:09:17;;;;;;;9.60;1.53;;;;;;;;;;5023197;28;20178;-67
2023/11/25 09:11:43;;;;;;;6.30;1.17;;;;;;;;;;5028433;28;20198;-67
2023/11/25 09:14:08;;;;;;;5.03;0.87;;;;;;;;;;5030981;28;20724;-67
2023/11/25 09:16:33;;;;;;;5.17;1.43;;;;;;;;;;5019167;28;20209;-66
2023/11/25 09:19:00;;;;;;;6.70;1.43;;;;;;;;;;5032994;28;20592;-67
2023/11/25 09:21:25;;;;;;;6.60;1.83;;;;;;;;;;5048495;28;20539;-66
2023/11/25 09:23:51;;;;;;;6.37;1.63;;;;;;;;;;5044068;28;20190;-66
2023/11/25 09:26:16;;;;;;;6.47;1.23;;;;;;;;;;5042217;28;20190;-66
2023/11/25 09:28:41;;;;;;;7.70;2.57;;;;;;;;;;5026176;28;20185;-66
2023/11/25 09:31:06;;;;;;;4.07;1.23;;;;;;;;;;5031956;28;20313;-66
2023/11/25 09:33:32;;;;;;;8.90;1.33;;;;;;;;;;5022060;28;20190;-67
2023/11/25 09:35:57;;;;;;;3.77;1.50;;;;;;;;;;5029670;28;20653;-66
2023/11/25 09:38:23;;;;;;;8.27;1.13;;;;;;;;;;5028572;28;20210;-66
2023/11/25 09:40:48;;;;;;;6.90;2.00;;;;;;;;;;5039162;28;20733;-66
2023/11/25 09:43:14;;;;;;;3.93;1.47;;;;;;;;;;5032110;28;20182;-67
2023/11/25 09:45:40;;;;;;;3.17;0.97;;;;;;;;;;5010044;28;20187;-67
2023/11/25 09:48:05;;;;;;;14.37;2.20;;;;;;;;;;5020568;28;20218;-66
2023/11/25 09:50:31;;;;;;;4.57;1.30;;;;;;;;;;5030451;28;20210;-67
2023/11/25 09:52:58;;;;;;;9.00;2.10;;;;;;;;;;5022637;28;20194;-66
2023/11/25 09:55:24;;;;;;;6.13;1.70;;;;;;;;;;5028039;28;20260;-66
2023/11/25 09:57:53;;;;;;;7.70;0.93;;;;;;;;;;5027891;28;20183;-66
2023/11/25 10:00:21;;;;;;;4.50;1.80;;;;;;;;;;5031931;28;20191;-67
2023/11/25 10:02:51;;;;;;;7.33;1.27;;;;;;;;;;5031332;28;20749;-67
2023/11/25 10:05:16;;;;;;;8.93;1.40;;;;;;;;;;5032069;28;20178;-66
2023/11/25 10:07:42;;;;;;;6.47;1.27;;;;;;;;;;5019385;28;20228;-66
2023/11/25 10:10:07;;;;;;;4.30;1.10;;;;;;;;;;5013999;28;20191;-67
2023/11/25 10:12:32;;;;;;;4.57;0.87;;;;;;;;;;5021123;28;20175;-66
2023/11/25 10:15:00;;;;;;;7.03;0.90;;;;;;;;;;5020624;28;20709;-66
2023/11/25 10:17:25;;;;;;;1.73;0.87;;;;;;;;;;5016363;28;20178;-66
2023/11/25 10:20:05;;;;;;;7.57;1.60;;;;;;;;;;5017666;28;20561;-67
2023/11/25 10:22:31;;;;;;;4.97;1.40;;;;;;;;;;5019727;28;20623;-65
2023/11/25 10:24:56;;;;;;;6.93;1.07;;;;;;;;;;5023707;28;20262;-66
2023/11/25 10:27:22;;;;;;;4.67;1.10;;;;;;;;;;5026586;28;20722;-67
2023/11/25 10:29:47;;;;;;;7.93;1.20;;;;;;;;;;5010654;28;20611;-66
2023/11/25 10:32:12;;;;;;;4.47;0.80;;;;;;;;;;5026059;28;20715;-67
2023/11/25 10:34:37;;;;;;;3.33;0.80;;;;;;;;;;5021466;28;20210;-67
2023/11/25 10:37:04;;;;;;;8.85;1.48;;;;;;;;;;5018994;28;20182;-66
2023/11/25 10:39:36;;;;;;;3.85;1.00;;;;;;;;;;5025718;28;20178;-66
2023/11/25 10:42:03;;;;;;;6.57;1.13;;;;;;;;;;5015007;28;20215;-67
2023/11/25 10:44:28;;;;;;;11.83;2.60;;;;;;;;;;5023423;28;20182;-67
2023/11/25 10:46:56;;;;;;;7.67;1.30;;;;;;;;;;5020214;28;20210;-67
2023/11/25 10:49:21;;;;;;;4.47;1.50;;;;;;;;;;5024153;28;20196;-66
2023/11/25 10:51:46;;;;;;;5.53;1.63;;;;;;;;;;5030080;28;20688;-67
2023/11/25 10:54:12;;;;;;;9.27;2.10;;;;;;;;;;5022011;28;20185;-67
2023/11/25 10:56:38;;;;;;;4.90;1.50;;;;;;;;;;5027032;28;20692;-67
2023/11/25 10:59:05;;;;;;;9.07;1.70;;;;;;;;;;5027832;28;20545;-67
2023/11/25 11:01:31;;;;;;;7.70;1.60;;;;;;;;;;5023768;28;20197;-67
2023/11/25 11:04:02;;;;;;;5.03;1.57;;;;;;;;;;4997647;28;20248;-67
2023/11/25 11:06:29;;;;;;;9.40;2.00;;;;;;;;;;5002743;28;20668;-66
2023/11/25 11:08:55;;;;;;;8.80;2.03;;;;;;;;;;5007032;28;20181;-67
2023/11/25 11:11:35;;;;;;;7.73;1.33;;;;;;;;;;5007068;28;21590;-68
2023/11/25 11:14:07;;;;;;;11.43;2.17;;;;;;;;;;5006742;28;20182;-68
2023/11/25 11:16:55;;;;;;;12.20;2.00;;;;;;;;;;4996961;28;20911;-67
2023/11/25 11:19:23;;;;;;;12.90;2.73;;;;;;;;;;5001664;28;20174;-66
2023/11/25 11:21:51;;;;;;;9.57;2.40;;;;;;;;;;4998983;28;20682;-67
2023/11/25 11:24:19;;;;;;;11.50;1.73;;;;;;;;;;5006319;28;20179;-68
2023/11/25 11:26:49;;;;;;;8.03;1.40;;;;;;;;;;4993183;28;20199;-66
2023/11/25 11:29:18;;;;;;;6.73;1.53;;;;;;;;;;5004766;28;20639;-67
2023/11/25 11:31:46;;;;;;;13.43;1.93;;;;;;;;;;4983642;28;20574;-68
2023/11/25 11:34:11;;;;;;;3.93;1.43;;;;;;;;;;5008230;28;20178;-68
2023/11/25 11:36:37;;;;;;;6.53;1.33;;;;;;;;;;5005963;28;20189;-67
2023/11/25 11:39:02;;;;;;;5.83;1.53;;;;;;;;;;5006784;28;20653;-66
2023/11/25 11:41:29;;;;;;;5.40;1.33;;;;;;;;;;5006817;28;20822;-68
2023/11/25 11:44:04;;;;;;;5.47;1.10;;;;;;;;;;4993564;28;20192;-67
2023/11/25 11:46:31;;;;;;;6.93;1.57;;;;;;;;;;4997806;28;20582;-68
2023/11/25 11:48:57;;;;;;;7.33;1.50;;;;;;;;;;5032925;28;20166;-65
2023/11/25 11:51:24;;;;;;;3.03;1.93;;;;;;;;;;5000800;28;20395;-66
2023/11/25 11:54:08;;;;;;;7.07;1.40;;;;;;;;;;5007960;28;20364;-66
2023/11/25 11:56:52;;;;;;;4.73;1.20;;;;;;;;;;5008816;28;20187;-66
2023/11/25 11:59:17;;;;;;;14.13;1.50;;;;;;;;;;5010086;28;20382;-67
2023/11/25 12:01:42;;;;;;;8.53;1.73;;;;;;;;;;5010756;28;20221;-66
2023/11/25 12:04:08;;;;;;;10.93;0.87;;;;;;;;;;5010983;28;20182;-66
2023/11/25 12:06:34;;;;;;;4.57;1.27;;;;;;;;;;5016340;28;20285;-67
2023/11/25 12:09:02;;;;;;;5.93;1.30;;;;;;;;;;5011183;28;21931;-67
2023/11/25 12:11:27;;;;;;;8.00;1.40;;;;;;;;;;5012740;28;20210;-65
2023/11/25 12:13:53;;;;;;;7.07;1.00;;;;;;;;;;5000585;28;20787;-67
2023/11/25 12:16:18;;;;;;;5.53;1.97;;;;;;;;;;5009837;28;20257;-67
2023/11/25 12:18:44;;;;;;;3.10;1.37;;;;;;;;;;5011459;28;20253;-67
2023/11/25 12:21:09;;;;;;;5.30;1.30;;;;;;;;;;5013619;28;20195;-68
2023/11/25 12:23:34;;;;;;;7.03;1.23;;;;;;;;;;5000711;28;20201;-66
2023/11/25 12:26:00;;;;;;;2.60;0.97;;;;;;;;;;5010553;28;20290;-65
2023/11/25 12:28:25;;;;;;;5.35;1.45;;;;;;;;;;5010176;28;20641;-66
2023/11/25 12:30:51;;;;;;;6.18;0.88;;;;;;;;;;5011831;28;20640;-67
2023/11/25 12:33:17;;;;;;;7.72;0.93;;;;;;;;;;5010531;28;20769;-66
2023/11/25 12:35:45;;;;;;;3.55;1.00;;;;;;;;;;5010413;28;20189;-67
2023/11/25 12:38:11;;;;;;;4.40;1.20;;;;;;;;;;5012430;28;20179;-67
2023/11/25 12:40:37;;;;;;;5.57;1.23;;;;;;;;;;5016322;28;20206;-67
2023/11/25 12:43:05;;;;;;;5.10;1.10;;;;;;;;;;5017116;28;20304;-67
2023/11/25 12:45:31;;;;;;;3.37;1.17;;;;;;;;;;4985257;28;20232;-65
2023/11/25 12:47:57;;;;;;;3.60;0.80;;;;;;;;;;5010546;28;20557;-66
2023/11/25 12:50:23;;;;;;;11.17;1.30;;;;;;;;;;5011736;28;20205;-67
2023/11/25 12:53:04;;;;;;;6.53;1.70;;;;;;;;;;5009738;28;20667;-66
2023/11/25 12:55:34;;;;;;;6.87;1.00;;;;;;;;;;5010670;28;21889;-67
2023/11/25 12:58:03;;;;;;;7.37;1.43;;;;;;;;;;5013170;28;20197;-66
2023/11/25 13:00:29;;;;;;;8.93;1.20;;;;;;;;;;5009666;28;20217;-67
2023/11/25 13:02:54;;;;;;;5.77;1.67;;;;;;;;;;5009858;28;20186;-67
2023/11/25 13:05:23;;;;;;;5.73;1.50;;;;;;;;;;5008403;28;20209;-66
2023/11/25 13:07:49;;;;;;;5.93;1.43;;;;;;;;;;5008886;28;20233;-67
2023/11/25 13:10:14;;;;;;;8.83;1.10;;;;;;;;;;4996032;28;20321;-67
2023/11/25 13:12:39;;;;;;;13.63;1.57;;;;;;;;;;4998543;28;20538;-68
2023/11/25 13:15:05;;;;;;;3.03;1.13;;;;;;;;;;5009183;28;20566;-67
2023/11/25 13:17:30;;;;;;;8.00;1.80;;;;;;;;;;5009795;28;20267;-67
2023/11/25 13:19:57;;;;;;;5.27;1.20;;;;;;;;;;5000493;28;20571;-66
2023/11/25 13:22:22;;;;;;;5.53;1.27;;;;;;;;;;5009862;28;20178;-67
2023/11/25 13:24:47;;;;;;;7.77;1.37;;;;;;;;;;5009650;28;20189;-67
2023/11/25 13:27:12;;;;;;;8.03;1.73;;;;;;;;;;5007154;28;20282;-66
2023/11/25 13:29:38;;;;;;;5.07;1.13;;;;;;;;;;5012432;28;20533;-67
2023/11/25 13:32:03;;;;;;;5.37;1.30;;;;;;;;;;5012770;28;20205;-68
2023/11/25 13:34:28;;;;;;;4.27;0.90;;;;;;;;;;5009539;28;20183;-67
2023/11/25 13:36:54;;;;;;;8.37;2.90;;;;;;;;;;5008301;28;20201;-67
2023/11/25 13:39:19;;;;;;;6.07;1.23;;;;;;;;;;5023735;28;20680;-67
2023/11/25 13:41:46;;;;;;;8.90;1.80;;;;;;;;;;5033503;28;20234;-65
2023/11/25 13:44:12;;;;;;;3.27;1.10;;;;;;;;;;5029763;28;20185;-67
2023/11/25 13:46:37;;;;;;;6.27;1.57;;;;;;;;;;5028370;28;20293;-67
2023/11/25 13:49:02;;;;;;;4.90;1.00;;;;;;;;;;5030921;28;20182;-67
2023/11/25 13:51:27;;;;;;;9.50;1.23;;;;;;;;;;5028801;28;20237;-67
2023/11/25 13:53:52;;;;;;;4.80;1.57;;;;;;;;;;5016444;28;20868;-66
2023/11/25 13:56:19;;;;;;;6.90;1.80;;;;;;;;;;5021979;28;20178;-66
2023/11/25 13:58:44;;;;;;;9.63;2.03;;;;;;;;;;5014765;28;20196;-66
2023/11/25 14:01:11;;;;;;;5.17;1.50;;;;;;;;;;5017076;28;20979;-65
2023/11/25 14:03:36;;;;;;;2.67;1.00;;;;;;;;;;5024152;28;20179;-65
2023/11/25 14:06:01;;;;;;;6.43;1.57;;;;;;;;;;5018071;28;20243;-65
2023/11/25 14:08:28;;;;;;;6.10;1.90;;;;;;;;;;5019916;28;20209;-67
2023/11/25 14:10:55;;;;;;;9.07;1.40;;;;;;;;;;5015988;28;20829;-67
2023/11/25 14:13:21;;;;;;;14.03;3.30;;;;;;;;;;5013411;28;20187;-66
2023/11/25 14:15:46;;;;;;;9.10;1.77;;;;;;;;;;5012461;28;20648;-66
2023/11/25 14:18:11;;;;;;;11.83;1.80;;;;;;;;;;5012380;28;20233;-67
2023/11/25 14:20:36;;;;;;;14.03;1.97;;;;;;;;;;5011503;28;20289;-67
2023/11/25 14:23:04;;;;;;;11.17;1.90;;;;;;;;;;5010146;28;20217;-67
2023/11/25 14:25:29;;;;;;;5.27;1.60;;;;;;;;;;5007349;28;20182;-68
2023/11/25 14:27:55;;;;;;;8.43;1.90;;;;;;;;;;5009196;28;20210;-66
2023/11/25 14:30:22;;;;;;;10.17;2.10;;;;;;;;;;5010123;28;20236;-68
2023/11/25 14:32:48;;;;;;;16.10;2.77;;;;;;;;;;5007667;28;20257;-67
2023/11/25 14:35:13;;;;;;;9.63;1.80;;;;;;;;;;5014461;28;20189;-66